sensor_id;sensor_type;location;lat;lon;timestamp;temperature;humidity
22173;DHT22;11252;50.596;17.648;2023-07-30T00:00:49;17.00;92.20
22173;DHT22;11252;50.596;17.648;2023-07-30T00:03:17;17.00;92.20
22173;DHT22;11252;50.596;17.648;2023-07-30T00:05:52;17.00;92.20
22173;DHT22;11252;50.596;17.648;2023-07-30T00:08:19;17.00;92.20
22173;DHT22;11252;50.596;17.648;2023-07-30T00:10:47;17.00;92.20
22173;DHT22;11252;50.596;17.648;2023-07-30T00:13:14;17.00;92.20
22173;DHT22;11252;50.596;17.648;2023-07-30T00:15:41;17.00;92.20
22173;DHT22;11252;50.596;17.648;2023-07-30T00:18:09;17.00;92.20
22173;DHT22;11252;50.596;17.648;2023-07-30T00:20:37;17.00;92.20
22173;DHT22;11252;50.596;17.648;2023-07-30T00:23:04;17.00;92.20
22173;DHT22;11252;50.596;17.648;2023-07-30T00:25:31;16.90;92.20
22173;DHT22;11252;50.596;17.648;2023-07-30T00:27:57;16.90;92.20
22173;DHT22;11252;50.596;17.648;2023-07-30T00:30:25;16.80;92.20
22173;DHT22;11252;50.596;17.648;2023-07-30T00:32:52;16.80;92.20
22173;DHT22;11252;50.596;17.648;2023-07-30T00:35:19;16.80;92.20
22173;DHT22;11252;50.596;17.648;2023-07-30T00:37:46;16.80;92.20
22173;DHT22;11252;50.596;17.648;2023-07-30T00:40:12;16.70;92.20
22173;DHT22;11252;50.596;17.648;2023-07-30T00:42:39;16.70;92.20
22173;DHT22;11252;50.596;17.648;2023-07-30T00:45:07;16.70;92.20
22173;DHT22;11252;50.596;17.648;2023-07-30T00:47:34;16.60;92.20
22173;DHT22;11252;50.596;17.648;2023-07-30T00:50:01;16.50;92.20
22173;DHT22;11252;50.596;17.648;2023-07-30T00:52:30;16.50;92.20
22173;DHT22;11252;50.596;17.648;2023-07-30T00:54:57;16.60;92.20
22173;DHT22;11252;50.596;17.648;2023-07-30T00:57:26;16.60;92.20
22173;DHT22;11252;50.596;17.648;2023-07-30T00:59:53;16.50;92.20
22173;DHT22;11252;50.596;17.648;2023-07-30T01:02:21;16.50;92.20
22173;DHT22;11252;50.596;17.648;2023-07-30T01:04:48;16.50;92.20
22173;DHT22;11252;50.596;17.648;2023-07-30T01:07:18;16.50;92.20
22173;DHT22;11252;50.596;17.648;2023-07-30T01:09:45;16.50;92.20
22173;DHT22;11252;50.596;17.648;2023-07-30T01:12:13;16.50;92.20
22173;DHT22;11252;50.596;17.648;2023-07-30T01:14:41;16.50;92.20
22173;DHT22;11252;50.596;17.648;2023-07-30T01:17:09;16.50;92.20
22173;DHT22;11252;50.596;17.648;2023-07-30T01:19:36;16.50;92.20
22173;DHT22;11252;50.596;17.648;2023-07-30T01:22:03;16.60;92.20
22173;DHT22;11252;50.596;17.648;2023-07-30T01:24:30;16.60;92.20
22173;DHT22;11252;50.596;17.648;2023-07-30T01:27:07;16.60;92.20
22173;DHT22;11252;50.596;17.648;2023-07-30T01:29:50;16.60;92.20
22173;DHT22;11252;50.596;17.648;2023-07-30T01:32:20;16.60;92.20
22173;DHT22;11252;50.596;17.648;2023-07-30T01:34:53;16.60;92.20
22173;DHT22;11252;50.596;17.648;2023-07-30T01:37:20;16.60;92.20
22173;DHT22;11252;50.596;17.648;2023-07-30T01:39:48;16.60;92.20
22173;DHT22;11252;50.596;17.648;2023-07-30T01:42:16;16.70;92.20
22173;DHT22;11252;50.596;17.648;2023-07-30T01:44:43;16.70;92.20
22173;DHT22;11252;50.596;17.648;2023-07-30T01:47:10;16.70;92.20
22173;DHT22;11252;50.596;17.648;2023-07-30T01:49:37;16.70;92.20
22173;DHT22;11252;50.596;17.648;2023-07-30T01:52:04;16.70;92.20
22173;DHT22;11252;50.596;17.648;2023-07-30T01:54:31;16.70;92.20
22173;DHT22;11252;50.596;17.648;2023-07-30T01:57:00;16.70;92.20
22173;DHT22;11252;50.596;17.648;2023-07-30T01:59:27;16.70;92.20
22173;DHT22;11252;50.596;17.648;2023-07-30T02:01:54;16.60;92.20
22173;DHT22;11252;50.596;17.648;2023-07-30T02:04:21;16.60;92.20
22173;DHT22;11252;50.596;17.648;2023-07-30T02:06:47;16.60;92.20
22173;DHT22;11252;50.596;17.648;2023-07-30T02:09:15;16.60;92.20
22173;DHT22;11252;50.596;17.648;2023-07-30T02:11:42;16.60;92.20
22173;DHT22;11252;50.596;17.648;2023-07-30T02:14:09;16.60;92.20
22173;DHT22;11252;50.596;17.648;2023-07-30T02:16:36;16.50;92.20
22173;DHT22;11252;50.596;17.648;2023-07-30T02:19:03;16.50;92.20
22173;DHT22;11252;50.596;17.648;2023-07-30T02:21:30;16.50;92.20
22173;DHT22;11252;50.596;17.648;2023-07-30T02:23:59;16.60;92.20
22173;DHT22;11252;50.596;17.648;2023-07-30T02:26:26;16.60;92.20
22173;DHT22;11252;50.596;17.648;2023-07-30T02:28:54;16.60;92.20
22173;DHT22;11252;50.596;17.648;2023-07-30T02:31:20;16.60;92.20
22173;DHT22;11252;50.596;17.648;2023-07-30T02:33:47;16.50;92.20
22173;DHT22;11252;50.596;17.648;2023-07-30T02:36:15;16.50;92.20
22173;DHT22;11252;50.596;17.648;2023-07-30T02:38:41;16.60;92.20
22173;DHT22;11252;50.596;17.648;2023-07-30T02:41:08;16.60;92.20
22173;DHT22;11252;50.596;17.648;2023-07-30T02:43:36;16.60;92.20
22173;DHT22;11252;50.596;17.648;2023-07-30T02:46:02;16.70;92.20
22173;DHT22;11252;50.596;17.648;2023-07-30T02:48:30;16.60;92.20
22173;DHT22;11252;50.596;17.648;2023-07-30T02:50:57;16.60;92.20
22173;DHT22;11252;50.596;17.648;2023-07-30T02:53:23;16.50;92.20
22173;DHT22;11252;50.596;17.648;2023-07-30T02:55:50;16.40;92.20
22173;DHT22;11252;50.596;17.648;2023-07-30T02:58:17;16.30;92.20
22173;DHT22;11252;50.596;17.648;2023-07-30T03:00:44;16.20;92.20
22173;DHT22;11252;50.596;17.648;2023-07-30T03:03:11;16.20;92.20
22173;DHT22;11252;50.596;17.648;2023-07-30T03:05:41;16.10;92.20
22173;DHT22;11252;50.596;17.648;2023-07-30T03:08:09;16.10;92.20
22173;DHT22;11252;50.596;17.648;2023-07-30T03:10:36;16.00;92.20
22173;DHT22;11252;50.596;17.648;2023-07-30T03:13:03;15.90;92.20
22173;DHT22;11252;50.596;17.648;2023-07-30T03:15:30;15.90;92.20
22173;DHT22;11252;50.596;17.648;2023-07-30T03:17:57;15.90;92.20
22173;DHT22;11252;50.596;17.648;2023-07-30T03:20:24;15.90;92.20
22173;DHT22;11252;50.596;17.648;2023-07-30T03:22:51;15.80;92.20
22173;DHT22;11252;50.596;17.648;2023-07-30T03:25:18;15.80;92.20
22173;DHT22;11252;50.596;17.648;2023-07-30T03:27:45;15.80;92.20
22173;DHT22;11252;50.596;17.648;2023-07-30T03:30:12;15.80;92.20
22173;DHT22;11252;50.596;17.648;2023-07-30T03:32:39;15.80;92.20
22173;DHT22;11252;50.596;17.648;2023-07-30T03:35:07;15.70;92.20
22173;DHT22;11252;50.596;17.648;2023-07-30T03:37:34;15.70;92.20
22173;DHT22;11252;50.596;17.648;2023-07-30T03:40:02;15.70;92.20
22173;DHT22;11252;50.596;17.648;2023-07-30T03:42:29;15.70;92.20
22173;DHT22;11252;50.596;17.648;2023-07-30T03:44:56;15.70;92.20
22173;DHT22;11252;50.596;17.648;2023-07-30T03:47:23;15.80;92.20
22173;DHT22;11252;50.596;17.648;2023-07-30T03:49:50;15.80;92.20
22173;DHT22;11252;50.596;17.648;2023-07-30T03:52:17;15.90;92.20
22173;DHT22;11252;50.596;17.648;2023-07-30T03:54:44;15.90;92.20
22173;DHT22;11252;50.596;17.648;2023-07-30T03:57:11;16.00;92.20
22173;DHT22;11252;50.596;17.648;2023-07-30T03:59:38;15.90;92.20
22173;DHT22;11252;50.596;17.648;2023-07-30T04:02:05;15.90;92.20
22173;DHT22;11252;50.596;17.648;2023-07-30T04:04:31;15.80;92.20
22173;DHT22;11252;50.596;17.648;2023-07-30T04:06:58;15.80;92.20
22173;DHT22;11252;50.596;17.648;2023-07-30T04:09:25;15.90;92.20
22173;DHT22;11252;50.596;17.648;2023-07-30T04:11:52;16.00;92.20
22173;DHT22;11252;50.596;17.648;2023-07-30T04:14:19;16.10;92.20
22173;DHT22;11252;50.596;17.648;2023-07-30T04:16:46;16.10;92.20
22173;DHT22;11252;50.596;17.648;2023-07-30T04:19:14;16.20;92.20
22173;DHT22;11252;50.596;17.648;2023-07-30T04:21:41;16.30;92.20
22173;DHT22;11252;50.596;17.648;2023-07-30T04:24:08;16.40;92.20
22173;DHT22;11252;50.596;17.648;2023-07-30T04:26:35;16.50;92.20
22173;DHT22;11252;50.596;17.648;2023-07-30T04:29:01;16.60;92.20
22173;DHT22;11252;50.596;17.648;2023-07-30T04:31:28;16.70;92.20
22173;DHT22;11252;50.596;17.648;2023-07-30T04:33:55;16.80;92.20
22173;DHT22;11252;50.596;17.648;2023-07-30T04:36:22;16.80;92.20
22173;DHT22;11252;50.596;17.648;2023-07-30T04:38:49;16.90;92.20
22173;DHT22;11252;50.596;17.648;2023-07-30T04:41:16;17.00;92.20
22173;DHT22;11252;50.596;17.648;2023-07-30T04:43:45;17.10;92.20
22173;DHT22;11252;50.596;17.648;2023-07-30T04:46:12;17.30;92.20
22173;DHT22;11252;50.596;17.648;2023-07-30T04:48:41;17.50;92.20
22173;DHT22;11252;50.596;17.648;2023-07-30T04:51:10;17.70;92.20
22173;DHT22;11252;50.596;17.648;2023-07-30T04:53:38;17.80;92.20
22173;DHT22;11252;50.596;17.648;2023-07-30T04:56:04;17.90;92.20
22173;DHT22;11252;50.596;17.648;2023-07-30T04:58:32;17.90;92.20
22173;DHT22;11252;50.596;17.648;2023-07-30T05:00:58;18.10;92.20
22173;DHT22;11252;50.596;17.648;2023-07-30T05:03:25;18.30;92.20
22173;DHT22;11252;50.596;17.648;2023-07-30T05:05:53;18.40;92.20
22173;DHT22;11252;50.596;17.648;2023-07-30T05:08:20;18.50;92.20
22173;DHT22;11252;50.596;17.648;2023-07-30T05:10:47;18.60;92.20
22173;DHT22;11252;50.596;17.648;2023-07-30T05:13:14;18.80;92.20
22173;DHT22;11252;50.596;17.648;2023-07-30T05:15:41;18.80;92.20
22173;DHT22;11252;50.596;17.648;2023-07-30T05:18:08;18.90;92.20
22173;DHT22;11252;50.596;17.648;2023-07-30T05:20:35;19.00;92.20
22173;DHT22;11252;50.596;17.648;2023-07-30T05:23:02;19.20;92.20
22173;DHT22;11252;50.596;17.648;2023-07-30T05:25:29;19.40;92.20
22173;DHT22;11252;50.596;17.648;2023-07-30T05:27:56;19.60;92.20
22173;DHT22;11252;50.596;17.648;2023-07-30T05:30:23;19.70;92.20
22173;DHT22;11252;50.596;17.648;2023-07-30T05:32:50;19.80;92.20
22173;DHT22;11252;50.596;17.648;2023-07-30T05:35:17;19.90;92.20
22173;DHT22;11252;50.596;17.648;2023-07-30T05:37:45;20.00;92.20
22173;DHT22;11252;50.596;17.648;2023-07-30T05:40:12;20.10;92.20
22173;DHT22;11252;50.596;17.648;2023-07-30T05:42:39;20.30;92.20
22173;DHT22;11252;50.596;17.648;2023-07-30T05:45:07;20.30;92.20
22173;DHT22;11252;50.596;17.648;2023-07-30T05:47:34;20.40;92.20
22173;DHT22;11252;50.596;17.648;2023-07-30T05:50:02;20.40;92.20
22173;DHT22;11252;50.596;17.648;2023-07-30T05:52:29;20.50;92.20
22173;DHT22;11252;50.596;17.648;2023-07-30T05:54:56;20.60;92.20
22173;DHT22;11252;50.596;17.648;2023-07-30T05:57:24;20.70;92.20
22173;DHT22;11252;50.596;17.648;2023-07-30T05:59:51;20.80;92.20
22173;DHT22;11252;50.596;17.648;2023-07-30T06:02:19;20.80;92.20
22173;DHT22;11252;50.596;17.648;2023-07-30T06:04:46;20.80;92.20
22173;DHT22;11252;50.596;17.648;2023-07-30T06:07:13;20.90;92.20
22173;DHT22;11252;50.596;17.648;2023-07-30T06:09:40;21.00;92.20
22173;DHT22;11252;50.596;17.648;2023-07-30T06:12:07;21.10;92.20
22173;DHT22;11252;50.596;17.648;2023-07-30T06:14:34;21.10;92.20
22173;DHT22;11252;50.596;17.648;2023-07-30T06:17:01;21.30;92.20
22173;DHT22;11252;50.596;17.648;2023-07-30T06:19:28;21.50;92.20
22173;DHT22;11252;50.596;17.648;2023-07-30T06:21:55;21.70;92.20
22173;DHT22;11252;50.596;17.648;2023-07-30T06:24:23;21.90;92.20
22173;DHT22;11252;50.596;17.648;2023-07-30T06:26:50;22.10;92.20
22173;DHT22;11252;50.596;17.648;2023-07-30T06:29:17;22.00;92.20
22173;DHT22;11252;50.596;17.648;2023-07-30T06:31:44;22.00;92.20
22173;DHT22;11252;50.596;17.648;2023-07-30T06:34:11;22.00;92.20
22173;DHT22;11252;50.596;17.648;2023-07-30T06:36:38;22.10;92.20
22173;DHT22;11252;50.596;17.648;2023-07-30T06:39:04;22.20;92.20
22173;DHT22;11252;50.596;17.648;2023-07-30T06:41:31;22.30;92.20
22173;DHT22;11252;50.596;17.648;2023-07-30T06:43:59;22.50;91.90
22173;DHT22;11252;50.596;17.648;2023-07-30T06:46:25;22.70;91.70
22173;DHT22;11252;50.596;17.648;2023-07-30T06:48:52;22.80;91.70
22173;DHT22;11252;50.596;17.648;2023-07-30T06:51:19;22.80;91.70
22173;DHT22;11252;50.596;17.648;2023-07-30T06:53:47;22.70;90.60
22173;DHT22;11252;50.596;17.648;2023-07-30T06:56:14;22.70;92.20
22173;DHT22;11252;50.596;17.648;2023-07-30T06:58:41;23.00;92.10
22173;DHT22;11252;50.596;17.648;2023-07-30T07:01:08;23.30;90.80
22173;DHT22;11252;50.596;17.648;2023-07-30T07:03:35;23.70;90.70
22173;DHT22;11252;50.596;17.648;2023-07-30T07:06:02;23.90;90.30
22173;DHT22;11252;50.596;17.648;2023-07-30T07:08:29;24.20;89.20
22173;DHT22;11252;50.596;17.648;2023-07-30T07:10:56;24.50;88.30
22173;DHT22;11252;50.596;17.648;2023-07-30T07:13:25;24.70;86.40
22173;DHT22;11252;50.596;17.648;2023-07-30T07:15:52;24.90;86.40
22173;DHT22;11252;50.596;17.648;2023-07-30T07:18:19;25.10;86.40
22173;DHT22;11252;50.596;17.648;2023-07-30T07:20:46;25.30;85.50
22173;DHT22;11252;50.596;17.648;2023-07-30T07:23:14;25.50;85.10
22173;DHT22;11252;50.596;17.648;2023-07-30T07:25:41;25.60;84.00
22173;DHT22;11252;50.596;17.648;2023-07-30T07:28:07;25.70;83.30
22173;DHT22;11252;50.596;17.648;2023-07-30T07:30:35;25.90;83.50
22173;DHT22;11252;50.596;17.648;2023-07-30T07:33:03;25.90;82.60
22173;DHT22;11252;50.596;17.648;2023-07-30T07:35:32;26.10;83.40
22173;DHT22;11252;50.596;17.648;2023-07-30T07:38:00;26.30;82.50
22173;DHT22;11252;50.596;17.648;2023-07-30T07:40:26;26.40;81.80
22173;DHT22;11252;50.596;17.648;2023-07-30T07:42:55;26.40;81.70
22173;DHT22;11252;50.596;17.648;2023-07-30T07:45:22;26.60;81.70
22173;DHT22;11252;50.596;17.648;2023-07-30T07:47:48;26.70;81.40
22173;DHT22;11252;50.596;17.648;2023-07-30T07:50:15;26.80;81.10
22173;DHT22;11252;50.596;17.648;2023-07-30T07:52:42;26.80;81.00
22173;DHT22;11252;50.596;17.648;2023-07-30T07:55:09;26.70;81.10
22173;DHT22;11252;50.596;17.648;2023-07-30T07:57:37;26.60;81.80
22173;DHT22;11252;50.596;17.648;2023-07-30T08:00:05;26.80;80.70
22173;DHT22;11252;50.596;17.648;2023-07-30T08:02:35;27.00;81.40
22173;DHT22;11252;50.596;17.648;2023-07-30T08:05:02;26.90;80.90
22173;DHT22;11252;50.596;17.648;2023-07-30T08:07:30;26.80;80.80
22173;DHT22;11252;50.596;17.648;2023-07-30T08:09:56;26.90;80.80
22173;DHT22;11252;50.596;17.648;2023-07-30T08:12:23;27.00;81.30
22173;DHT22;11252;50.596;17.648;2023-07-30T08:14:50;27.00;80.30
22173;DHT22;11252;50.596;17.648;2023-07-30T08:17:18;26.70;79.50
22173;DHT22;11252;50.596;17.648;2023-07-30T08:19:45;26.40;81.10
22173;DHT22;11252;50.596;17.648;2023-07-30T08:22:12;26.20;81.90
22173;DHT22;11252;50.596;17.648;2023-07-30T08:24:39;26.20;83.00
22173;DHT22;11252;50.596;17.648;2023-07-30T08:27:06;26.30;81.50
22173;DHT22;11252;50.596;17.648;2023-07-30T08:29:33;26.50;82.30
22173;DHT22;11252;50.596;17.648;2023-07-30T08:32:05;26.50;81.30
22173;DHT22;11252;50.596;17.648;2023-07-30T08:34:32;26.50;81.60
22173;DHT22;11252;50.596;17.648;2023-07-30T08:36:59;26.60;81.80
22173;DHT22;11252;50.596;17.648;2023-07-30T08:39:26;26.60;81.80
22173;DHT22;11252;50.596;17.648;2023-07-30T08:41:53;26.80;81.10
22173;DHT22;11252;50.596;17.648;2023-07-30T08:44:20;26.80;80.80
22173;DHT22;11252;50.596;17.648;2023-07-30T08:46:47;26.90;80.30
22173;DHT22;11252;50.596;17.648;2023-07-30T08:49:14;26.80;80.30
22173;DHT22;11252;50.596;17.648;2023-07-30T08:51:41;26.80;80.40
22173;DHT22;11252;50.596;17.648;2023-07-30T08:54:12;26.70;81.00
22173;DHT22;11252;50.596;17.648;2023-07-30T08:56:39;26.80;80.60
22173;DHT22;11252;50.596;17.648;2023-07-30T08:59:06;26.70;81.20
22173;DHT22;11252;50.596;17.648;2023-07-30T09:01:38;26.60;80.80
22173;DHT22;11252;50.596;17.648;2023-07-30T09:04:07;26.60;80.60
22173;DHT22;11252;50.596;17.648;2023-07-30T09:06:35;26.40;79.60
22173;DHT22;11252;50.596;17.648;2023-07-30T09:09:03;26.10;82.00
22173;DHT22;11252;50.596;17.648;2023-07-30T09:11:30;26.00;82.30
22173;DHT22;11252;50.596;17.648;2023-07-30T09:13:57;25.80;81.70
22173;DHT22;11252;50.596;17.648;2023-07-30T09:16:25;25.70;82.60
22173;DHT22;11252;50.596;17.648;2023-07-30T09:18:53;25.50;82.20
22173;DHT22;11252;50.596;17.648;2023-07-30T09:21:30;25.60;82.90
22173;DHT22;11252;50.596;17.648;2023-07-30T09:23:57;25.70;83.10
22173;DHT22;11252;50.596;17.648;2023-07-30T09:26:45;25.60;82.10
22173;DHT22;11252;50.596;17.648;2023-07-30T09:29:13;25.50;81.80
22173;DHT22;11252;50.596;17.648;2023-07-30T09:31:49;25.40;82.80
22173;DHT22;11252;50.596;17.648;2023-07-30T09:34:18;25.40;83.40
22173;DHT22;11252;50.596;17.648;2023-07-30T09:36:45;25.40;83.20
22173;DHT22;11252;50.596;17.648;2023-07-30T09:39:26;25.50;83.20
22173;DHT22;11252;50.596;17.648;2023-07-30T09:41:59;25.70;83.60
22173;DHT22;11252;50.596;17.648;2023-07-30T09:44:27;25.90;83.30
22173;DHT22;11252;50.596;17.648;2023-07-30T09:46:54;26.00;82.70
22173;DHT22;11252;50.596;17.648;2023-07-30T09:49:21;26.10;81.60
22173;DHT22;11252;50.596;17.648;2023-07-30T09:51:51;26.20;83.40
22173;DHT22;11252;50.596;17.648;2023-07-30T09:54:21;26.40;82.30
22173;DHT22;11252;50.596;17.648;2023-07-30T09:56:48;26.50;82.30
22173;DHT22;11252;50.596;17.648;2023-07-30T09:59:15;26.60;81.70
22173;DHT22;11252;50.596;17.648;2023-07-30T10:01:47;26.60;82.30
22173;DHT22;11252;50.596;17.648;2023-07-30T10:04:20;26.80;81.70
22173;DHT22;11252;50.596;17.648;2023-07-30T10:06:54;26.70;80.90
22173;DHT22;11252;50.596;17.648;2023-07-30T10:09:23;26.80;80.70
22173;DHT22;11252;50.596;17.648;2023-07-30T10:11:53;26.90;80.20
22173;DHT22;11252;50.596;17.648;2023-07-30T10:14:22;27.00;80.30
22173;DHT22;11252;50.596;17.648;2023-07-30T10:16:55;27.00;79.20
22173;DHT22;11252;50.596;17.648;2023-07-30T10:19:24;26.70;80.00
22173;DHT22;11252;50.596;17.648;2023-07-30T10:24:41;26.70;79.30
22173;DHT22;11252;50.596;17.648;2023-07-30T10:27:24;26.80;80.90
22173;DHT22;11252;50.596;17.648;2023-07-30T10:38:27;26.90;79.20
22173;DHT22;11252;50.596;17.648;2023-07-30T10:43:38;26.60;78.20
22173;DHT22;11252;50.596;17.648;2023-07-30T10:46:06;26.30;79.30
22173;DHT22;11252;50.596;17.648;2023-07-30T10:48:35;26.20;80.00
22173;DHT22;11252;50.596;17.648;2023-07-30T10:51:04;26.10;79.80
22173;DHT22;11252;50.596;17.648;2023-07-30T10:53:32;26.30;80.60
22173;DHT22;11252;50.596;17.648;2023-07-30T10:56:00;26.30;79.80
22173;DHT22;11252;50.596;17.648;2023-07-30T10:58:33;26.20;80.50
22173;DHT22;11252;50.596;17.648;2023-07-30T11:01:07;26.30;78.80
22173;DHT22;11252;50.596;17.648;2023-07-30T11:03:35;26.40;81.00
22173;DHT22;11252;50.596;17.648;2023-07-30T11:06:03;26.70;79.60
22173;DHT22;11252;50.596;17.648;2023-07-30T11:08:42;27.20;77.10
22173;DHT22;11252;50.596;17.648;2023-07-30T11:11:10;27.10;76.70
22173;DHT22;11252;50.596;17.648;2023-07-30T11:13:45;27.00;78.00
22173;DHT22;11252;50.596;17.648;2023-07-30T11:16:14;26.50;79.20
22173;DHT22;11252;50.596;17.648;2023-07-30T11:18:43;26.60;78.40
22173;DHT22;11252;50.596;17.648;2023-07-30T11:21:12;26.70;79.20
22173;DHT22;11252;50.596;17.648;2023-07-30T11:23:40;26.90;79.10
22173;DHT22;11252;50.596;17.648;2023-07-30T11:26:16;27.10;78.10
22173;DHT22;11252;50.596;17.648;2023-07-30T11:28:43;27.20;78.30
22173;DHT22;11252;50.596;17.648;2023-07-30T11:31:13;27.50;76.60
22173;DHT22;11252;50.596;17.648;2023-07-30T11:33:43;27.50;77.00
22173;DHT22;11252;50.596;17.648;2023-07-30T11:36:16;27.70;76.50
22173;DHT22;11252;50.596;17.648;2023-07-30T11:38:45;27.80;75.70
22173;DHT22;11252;50.596;17.648;2023-07-30T11:41:13;27.50;77.00
22173;DHT22;11252;50.596;17.648;2023-07-30T11:43:43;27.50;77.90
22173;DHT22;11252;50.596;17.648;2023-07-30T11:48:39;27.90;76.40
22173;DHT22;11252;50.596;17.648;2023-07-30T11:51:06;28.10;76.10
22173;DHT22;11252;50.596;17.648;2023-07-30T11:53:47;28.20;76.00
22173;DHT22;11252;50.596;17.648;2023-07-30T11:56:22;27.90;74.60
22173;DHT22;11252;50.596;17.648;2023-07-30T11:58:53;27.40;75.50
22173;DHT22;11252;50.596;17.648;2023-07-30T12:01:21;27.30;76.90
22173;DHT22;11252;50.596;17.648;2023-07-30T12:03:49;27.20;75.50
22173;DHT22;11252;50.596;17.648;2023-07-30T12:06:16;27.00;76.40
22173;DHT22;11252;50.596;17.648;2023-07-30T12:08:43;27.10;77.70
22173;DHT22;11252;50.596;17.648;2023-07-30T12:11:10;27.30;76.90
22173;DHT22;11252;50.596;17.648;2023-07-30T12:13:44;27.20;76.80
22173;DHT22;11252;50.596;17.648;2023-07-30T12:16:13;27.20;76.60
22173;DHT22;11252;50.596;17.648;2023-07-30T12:18:40;27.20;75.90
22173;DHT22;11252;50.596;17.648;2023-07-30T12:21:08;27.00;77.00
22173;DHT22;11252;50.596;17.648;2023-07-30T12:23:34;27.00;75.60
22173;DHT22;11252;50.596;17.648;2023-07-30T12:26:02;26.90;75.80
22173;DHT22;11252;50.596;17.648;2023-07-30T12:28:33;26.80;75.40
22173;DHT22;11252;50.596;17.648;2023-07-30T12:31:01;26.80;75.70
22173;DHT22;11252;50.596;17.648;2023-07-30T12:33:30;26.70;77.10
22173;DHT22;11252;50.596;17.648;2023-07-30T12:35:56;26.60;76.30
22173;DHT22;11252;50.596;17.648;2023-07-30T12:38:24;26.50;75.90
22173;DHT22;11252;50.596;17.648;2023-07-30T12:40:51;26.60;75.20
22173;DHT22;11252;50.596;17.648;2023-07-30T12:43:18;26.70;74.50
22173;DHT22;11252;50.596;17.648;2023-07-30T12:45:48;26.70;74.50
22173;DHT22;11252;50.596;17.648;2023-07-30T12:48:15;26.70;74.20
22173;DHT22;11252;50.596;17.648;2023-07-30T12:50:42;26.60;75.70
22173;DHT22;11252;50.596;17.648;2023-07-30T12:53:09;26.50;75.70
22173;DHT22;11252;50.596;17.648;2023-07-30T12:55:36;26.40;75.50
22173;DHT22;11252;50.596;17.648;2023-07-30T12:58:05;26.50;76.10
22173;DHT22;11252;50.596;17.648;2023-07-30T13:00:33;26.70;76.30
22173;DHT22;11252;50.596;17.648;2023-07-30T13:03:00;26.90;75.80
22173;DHT22;11252;50.596;17.648;2023-07-30T13:05:29;27.10;76.10
22173;DHT22;11252;50.596;17.648;2023-07-30T13:07:56;27.20;75.30
22173;DHT22;11252;50.596;17.648;2023-07-30T13:10:23;27.20;74.70
22173;DHT22;11252;50.596;17.648;2023-07-30T13:12:50;27.20;74.80
22173;DHT22;11252;50.596;17.648;2023-07-30T13:15:17;27.20;76.00
22173;DHT22;11252;50.596;17.648;2023-07-30T13:17:44;27.10;75.50
22173;DHT22;11252;50.596;17.648;2023-07-30T13:20:11;27.10;75.70
22173;DHT22;11252;50.596;17.648;2023-07-30T13:22:38;27.00;76.10
22173;DHT22;11252;50.596;17.648;2023-07-30T13:25:05;27.00;76.00
22173;DHT22;11252;50.596;17.648;2023-07-30T13:27:32;26.90;76.00
22173;DHT22;11252;50.596;17.648;2023-07-30T13:30:03;26.90;76.10
22173;DHT22;11252;50.596;17.648;2023-07-30T13:32:30;26.70;75.70
22173;DHT22;11252;50.596;17.648;2023-07-30T13:34:57;26.70;76.50
22173;DHT22;11252;50.596;17.648;2023-07-30T13:37:24;26.60;77.40
22173;DHT22;11252;50.596;17.648;2023-07-30T13:39:50;26.50;77.40
22173;DHT22;11252;50.596;17.648;2023-07-30T13:42:17;26.40;78.20
22173;DHT22;11252;50.596;17.648;2023-07-30T13:44:44;26.30;78.10
22173;DHT22;11252;50.596;17.648;2023-07-30T13:47:11;26.10;80.40
22173;DHT22;11252;50.596;17.648;2023-07-30T13:49:40;25.30;89.20
22173;DHT22;11252;50.596;17.648;2023-07-30T13:52:08;24.30;92.20
22173;DHT22;11252;50.596;17.648;2023-07-30T13:54:35;23.50;92.20
22173;DHT22;11252;50.596;17.648;2023-07-30T13:57:04;22.80;92.20
22173;DHT22;11252;50.596;17.648;2023-07-30T13:59:32;22.30;92.20
22173;DHT22;11252;50.596;17.648;2023-07-30T14:01:59;22.00;92.20
22173;DHT22;11252;50.596;17.648;2023-07-30T14:04:26;21.60;92.20
22173;DHT22;11252;50.596;17.648;2023-07-30T14:06:53;21.60;92.20
22173;DHT22;11252;50.596;17.648;2023-07-30T14:09:20;21.80;92.20
22173;DHT22;11252;50.596;17.648;2023-07-30T14:11:46;22.00;92.20
22173;DHT22;11252;50.596;17.648;2023-07-30T14:14:13;22.20;92.20
22173;DHT22;11252;50.596;17.648;2023-07-30T14:16:40;22.30;92.20
22173;DHT22;11252;50.596;17.648;2023-07-30T14:19:07;22.50;92.20
22173;DHT22;11252;50.596;17.648;2023-07-30T14:21:34;22.70;92.20
22173;DHT22;11252;50.596;17.648;2023-07-30T14:24:02;22.90;92.20
22173;DHT22;11252;50.596;17.648;2023-07-30T14:26:29;23.00;92.20
22173;DHT22;11252;50.596;17.648;2023-07-30T14:28:56;23.10;92.20
22173;DHT22;11252;50.596;17.648;2023-07-30T14:31:23;23.20;92.20
22173;DHT22;11252;50.596;17.648;2023-07-30T14:33:49;23.30;92.20
22173;DHT22;11252;50.596;17.648;2023-07-30T14:36:16;23.50;92.20
22173;DHT22;11252;50.596;17.648;2023-07-30T14:38:43;23.50;92.20
22173;DHT22;11252;50.596;17.648;2023-07-30T14:41:10;23.50;92.20
22173;DHT22;11252;50.596;17.648;2023-07-30T14:43:37;23.40;92.20
22173;DHT22;11252;50.596;17.648;2023-07-30T14:46:04;23.40;92.20
22173;DHT22;11252;50.596;17.648;2023-07-30T14:48:32;23.20;92.20
22173;DHT22;11252;50.596;17.648;2023-07-30T14:50:59;22.90;92.20
22173;DHT22;11252;50.596;17.648;2023-07-30T14:53:26;22.90;92.20
22173;DHT22;11252;50.596;17.648;2023-07-30T14:55:53;23.00;92.20
22173;DHT22;11252;50.596;17.648;2023-07-30T14:58:20;23.10;92.20
22173;DHT22;11252;50.596;17.648;2023-07-30T15:00:47;23.10;92.20
22173;DHT22;11252;50.596;17.648;2023-07-30T15:03:14;23.00;92.20
22173;DHT22;11252;50.596;17.648;2023-07-30T15:05:41;22.80;92.20
22173;DHT22;11252;50.596;17.648;2023-07-30T15:08:08;22.80;92.20
22173;DHT22;11252;50.596;17.648;2023-07-30T15:10:35;22.70;92.20
22173;DHT22;11252;50.596;17.648;2023-07-30T15:13:02;22.80;92.20
22173;DHT22;11252;50.596;17.648;2023-07-30T15:15:30;23.00;92.20
22173;DHT22;11252;50.596;17.648;2023-07-30T15:18:00;23.10;92.20
22173;DHT22;11252;50.596;17.648;2023-07-30T15:20:28;23.10;92.20
22173;DHT22;11252;50.596;17.648;2023-07-30T15:22:54;23.20;92.20
22173;DHT22;11252;50.596;17.648;2023-07-30T15:25:22;23.30;92.20
22173;DHT22;11252;50.596;17.648;2023-07-30T15:27:49;23.30;92.20
22173;DHT22;11252;50.596;17.648;2023-07-30T15:30:17;23.30;92.20
22173;DHT22;11252;50.596;17.648;2023-07-30T15:32:45;23.50;92.20
22173;DHT22;11252;50.596;17.648;2023-07-30T15:35:15;23.60;92.20